sensor_id;sensor_type;location;lat;lon;timestamp;temperature;humidity
19483;DHT22;9882;51.166;6.992;2023-03-21T00:00:46;11.00;99.90
19483;DHT22;9882;51.166;6.992;2023-03-21T00:03:15;10.90;99.90
19483;DHT22;9882;51.166;6.992;2023-03-21T00:05:44;10.90;99.90
19483;DHT22;9882;51.166;6.992;2023-03-21T00:08:19;10.90;99.90
19483;DHT22;9882;51.166;6.992;2023-03-21T00:10:54;10.90;99.90
19483;DHT22;9882;51.166;6.992;2023-03-21T00:13:25;10.80;99.90
19483;DHT22;9882;51.166;6.992;2023-03-21T00:16:05;10.80;99.90
19483;DHT22;9882;51.166;6.992;2023-03-21T00:18:35;10.80;99.90
19483;DHT22;9882;51.166;6.992;2023-03-21T00:21:11;10.80;99.90
19483;DHT22;9882;51.166;6.992;2023-03-21T00:24:02;10.80;99.90
19483;DHT22;9882;51.166;6.992;2023-03-21T00:26:31;10.80;99.90
19483;DHT22;9882;51.166;6.992;2023-03-21T00:29:01;10.80;99.90
19483;DHT22;9882;51.166;6.992;2023-03-21T00:31:31;10.70;99.90
19483;DHT22;9882;51.166;6.992;2023-03-21T00:34:01;10.60;99.90
19483;DHT22;9882;51.166;6.992;2023-03-21T00:36:30;10.70;99.90
19483;DHT22;9882;51.166;6.992;2023-03-21T00:38:59;10.60;99.90
19483;DHT22;9882;51.166;6.992;2023-03-21T00:41:29;10.70;99.90
19483;DHT22;9882;51.166;6.992;2023-03-21T00:44:12;10.80;99.90
19483;DHT22;9882;51.166;6.992;2023-03-21T00:46:44;10.70;99.90
19483;DHT22;9882;51.166;6.992;2023-03-21T00:49:31;10.70;99.90
19483;DHT22;9882;51.166;6.992;2023-03-21T00:52:02;10.70;99.90
19483;DHT22;9882;51.166;6.992;2023-03-21T00:54:53;10.60;99.90
19483;DHT22;9882;51.166;6.992;2023-03-21T00:57:22;10.70;99.90
19483;DHT22;9882;51.166;6.992;2023-03-21T01:00:05;10.70;99.90
19483;DHT22;9882;51.166;6.992;2023-03-21T01:02:39;10.70;99.90
19483;DHT22;9882;51.166;6.992;2023-03-21T01:05:29;10.70;99.90
19483;DHT22;9882;51.166;6.992;2023-03-21T01:08:15;10.70;99.90
19483;DHT22;9882;51.166;6.992;2023-03-21T01:10:53;10.70;99.90
19483;DHT22;9882;51.166;6.992;2023-03-21T01:13:24;10.70;99.90
19483;DHT22;9882;51.166;6.992;2023-03-21T01:15:55;10.60;99.90
19483;DHT22;9882;51.166;6.992;2023-03-21T01:18:28;10.60;99.90
19483;DHT22;9882;51.166;6.992;2023-03-21T01:20:58;10.60;99.90
19483;DHT22;9882;51.166;6.992;2023-03-21T01:23:30;10.60;99.90
19483;DHT22;9882;51.166;6.992;2023-03-21T01:26:00;10.60;99.90
19483;DHT22;9882;51.166;6.992;2023-03-21T01:28:29;10.60;99.90
19483;DHT22;9882;51.166;6.992;2023-03-21T01:31:00;10.60;99.90
19483;DHT22;9882;51.166;6.992;2023-03-21T01:33:32;10.60;99.90
19483;DHT22;9882;51.166;6.992;2023-03-21T01:36:08;10.70;99.90
19483;DHT22;9882;51.166;6.992;2023-03-21T01:38:53;10.60;99.90
19483;DHT22;9882;51.166;6.992;2023-03-21T01:41:41;10.60;99.90
19483;DHT22;9882;51.166;6.992;2023-03-21T01:44:27;10.60;99.90
19483;DHT22;9882;51.166;6.992;2023-03-21T01:47:09;10.60;99.90
19483;DHT22;9882;51.166;6.992;2023-03-21T01:49:53;10.50;99.90
19483;DHT22;9882;51.166;6.992;2023-03-21T01:53:01;10.50;99.90
19483;DHT22;9882;51.166;6.992;2023-03-21T01:55:45;10.50;99.90
19483;DHT22;9882;51.166;6.992;2023-03-21T01:58:52;10.60;99.90
19483;DHT22;9882;51.166;6.992;2023-03-21T02:01:55;10.60;99.90
19483;DHT22;9882;51.166;6.992;2023-03-21T02:04:36;10.40;99.90
19483;DHT22;9882;51.166;6.992;2023-03-21T02:07:29;10.40;99.90
19483;DHT22;9882;51.166;6.992;2023-03-21T02:10:23;10.40;99.90
19483;DHT22;9882;51.166;6.992;2023-03-21T02:12:55;10.50;99.90
19483;DHT22;9882;51.166;6.992;2023-03-21T02:15:26;10.40;99.90
19483;DHT22;9882;51.166;6.992;2023-03-21T02:18:19;10.40;99.90
19483;DHT22;9882;51.166;6.992;2023-03-21T02:21:10;10.50;99.90
19483;DHT22;9882;51.166;6.992;2023-03-21T02:24:07;10.40;99.90
19483;DHT22;9882;51.166;6.992;2023-03-21T02:26:55;10.40;99.90
19483;DHT22;9882;51.166;6.992;2023-03-21T02:33:02;10.50;99.90
19483;DHT22;9882;51.166;6.992;2023-03-21T02:35:50;10.50;99.90
19483;DHT22;9882;51.166;6.992;2023-03-21T02:38:26;10.60;99.90
19483;DHT22;9882;51.166;6.992;2023-03-21T02:41:04;10.60;99.90
19483;DHT22;9882;51.166;6.992;2023-03-21T02:43:43;10.60;99.90
19483;DHT22;9882;51.166;6.992;2023-03-21T02:46:15;10.60;99.90
19483;DHT22;9882;51.166;6.992;2023-03-21T02:48:50;10.60;99.90
19483;DHT22;9882;51.166;6.992;2023-03-21T02:51:21;10.50;99.90
19483;DHT22;9882;51.166;6.992;2023-03-21T02:53:56;10.40;99.90
19483;DHT22;9882;51.166;6.992;2023-03-21T02:56:47;10.40;99.90
19483;DHT22;9882;51.166;6.992;2023-03-21T02:59:18;10.50;99.90
19483;DHT22;9882;51.166;6.992;2023-03-21T03:01:49;10.50;99.90
19483;DHT22;9882;51.166;6.992;2023-03-21T03:04:20;10.50;99.90
19483;DHT22;9882;51.166;6.992;2023-03-21T03:07:09;10.50;99.90
19483;DHT22;9882;51.166;6.992;2023-03-21T03:09:51;10.60;99.90
19483;DHT22;9882;51.166;6.992;2023-03-21T03:12:29;10.40;99.90
19483;DHT22;9882;51.166;6.992;2023-03-21T03:15:10;10.50;99.90
19483;DHT22;9882;51.166;6.992;2023-03-21T03:17:49;10.50;99.90
19483;DHT22;9882;51.166;6.992;2023-03-21T03:20:33;10.50;99.90
19483;DHT22;9882;51.166;6.992;2023-03-21T03:23:11;10.50;99.90
19483;DHT22;9882;51.166;6.992;2023-03-21T03:25:48;10.50;99.90
19483;DHT22;9882;51.166;6.992;2023-03-21T03:28:22;10.50;99.90
19483;DHT22;9882;51.166;6.992;2023-03-21T03:30:53;10.50;99.90
19483;DHT22;9882;51.166;6.992;2023-03-21T03:33:43;10.50;99.90
19483;DHT22;9882;51.166;6.992;2023-03-21T03:36:14;10.30;99.90
19483;DHT22;9882;51.166;6.992;2023-03-21T03:38:59;10.30;99.90
19483;DHT22;9882;51.166;6.992;2023-03-21T03:41:39;10.30;99.90
19483;DHT22;9882;51.166;6.992;2023-03-21T03:44:31;10.30;99.90
19483;DHT22;9882;51.166;6.992;2023-03-21T03:47:07;10.20;99.90
19483;DHT22;9882;51.166;6.992;2023-03-21T03:49:41;10.30;99.90
19483;DHT22;9882;51.166;6.992;2023-03-21T03:52:16;10.30;99.90
19483;DHT22;9882;51.166;6.992;2023-03-21T03:54:51;10.30;99.90
19483;DHT22;9882;51.166;6.992;2023-03-21T03:57:26;10.20;99.90
19483;DHT22;9882;51.166;6.992;2023-03-21T03:59:55;10.20;99.90
19483;DHT22;9882;51.166;6.992;2023-03-21T04:02:43;10.20;99.90
19483;DHT22;9882;51.166;6.992;2023-03-21T04:05:15;10.10;99.90
19483;DHT22;9882;51.166;6.992;2023-03-21T04:07:47;10.10;99.90
19483;DHT22;9882;51.166;6.992;2023-03-21T04:10:18;10.10;99.90
19483;DHT22;9882;51.166;6.992;2023-03-21T04:12:49;10.20;99.90
19483;DHT22;9882;51.166;6.992;2023-03-21T04:15:24;10.20;99.90
19483;DHT22;9882;51.166;6.992;2023-03-21T04:17:59;10.20;99.90
19483;DHT22;9882;51.166;6.992;2023-03-21T04:20:27;10.10;99.90
19483;DHT22;9882;51.166;6.992;2023-03-21T04:23:04;10.10;99.90
19483;DHT22;9882;51.166;6.992;2023-03-21T04:25:33;10.00;99.90
19483;DHT22;9882;51.166;6.992;2023-03-21T04:28:05;10.10;99.90
19483;DHT22;9882;51.166;6.992;2023-03-21T04:30:39;10.10;99.90
19483;DHT22;9882;51.166;6.992;2023-03-21T04:33:20;10.20;99.90
19483;DHT22;9882;51.166;6.992;2023-03-21T04:35:55;10.20;99.90
19483;DHT22;9882;51.166;6.992;2023-03-21T04:38:28;10.20;99.90
19483;DHT22;9882;51.166;6.992;2023-03-21T04:41:00;10.20;99.90
19483;DHT22;9882;51.166;6.992;2023-03-21T04:43:31;10.10;99.90
19483;DHT22;9882;51.166;6.992;2023-03-21T04:45:59;10.00;99.90
19483;DHT22;9882;51.166;6.992;2023-03-21T04:48:28;10.10;99.90
19483;DHT22;9882;51.166;6.992;2023-03-21T04:50:59;10.10;99.90
19483;DHT22;9882;51.166;6.992;2023-03-21T04:53:28;10.20;99.90
19483;DHT22;9882;51.166;6.992;2023-03-21T04:55:57;10.20;99.90
19483;DHT22;9882;51.166;6.992;2023-03-21T04:58:27;10.20;99.90
19483;DHT22;9882;51.166;6.992;2023-03-21T05:00:57;10.20;99.90
19483;DHT22;9882;51.166;6.992;2023-03-21T05:03:28;10.30;99.90
19483;DHT22;9882;51.166;6.992;2023-03-21T05:06:00;10.20;99.90
19483;DHT22;9882;51.166;6.992;2023-03-21T05:08:29;10.10;99.90
19483;DHT22;9882;51.166;6.992;2023-03-21T05:10:57;10.10;99.90
19483;DHT22;9882;51.166;6.992;2023-03-21T05:13:27;10.20;99.90
19483;DHT22;9882;51.166;6.992;2023-03-21T05:15:55;10.00;99.90
19483;DHT22;9882;51.166;6.992;2023-03-21T05:18:25;10.10;99.90
19483;DHT22;9882;51.166;6.992;2023-03-21T05:21:09;10.00;99.90
19483;DHT22;9882;51.166;6.992;2023-03-21T05:23:39;10.00;99.90
19483;DHT22;9882;51.166;6.992;2023-03-21T05:26:09;10.00;99.90
19483;DHT22;9882;51.166;6.992;2023-03-21T05:28:45;9.90;99.90
19483;DHT22;9882;51.166;6.992;2023-03-21T05:31:14;9.90;99.90
19483;DHT22;9882;51.166;6.992;2023-03-21T05:33:47;9.90;99.90
19483;DHT22;9882;51.166;6.992;2023-03-21T05:36:18;10.00;99.90
19483;DHT22;9882;51.166;6.992;2023-03-21T05:38:46;9.90;99.90
19483;DHT22;9882;51.166;6.992;2023-03-21T05:41:16;9.80;99.90
19483;DHT22;9882;51.166;6.992;2023-03-21T05:43:48;9.80;99.90
19483;DHT22;9882;51.166;6.992;2023-03-21T05:46:16;9.90;99.90
19483;DHT22;9882;51.166;6.992;2023-03-21T05:48:46;9.90;99.90
19483;DHT22;9882;51.166;6.992;2023-03-21T05:51:17;9.90;99.90
19483;DHT22;9882;51.166;6.992;2023-03-21T05:53:46;9.90;99.90
19483;DHT22;9882;51.166;6.992;2023-03-21T05:56:15;9.90;99.90
19483;DHT22;9882;51.166;6.992;2023-03-21T05:58:49;9.90;99.90
19483;DHT22;9882;51.166;6.992;2023-03-21T06:01:18;9.90;99.90
19483;DHT22;9882;51.166;6.992;2023-03-21T06:03:56;9.90;99.90
19483;DHT22;9882;51.166;6.992;2023-03-21T06:06:27;9.90;99.90
19483;DHT22;9882;51.166;6.992;2023-03-21T06:08:59;9.80;99.90
19483;DHT22;9882;51.166;6.992;2023-03-21T06:11:31;9.80;99.90
19483;DHT22;9882;51.166;6.992;2023-03-21T06:14:19;9.90;99.90
19483;DHT22;9882;51.166;6.992;2023-03-21T06:17:07;9.80;99.90
19483;DHT22;9882;51.166;6.992;2023-03-21T06:19:44;9.80;99.90
19483;DHT22;9882;51.166;6.992;2023-03-21T06:22:38;9.80;99.90
19483;DHT22;9882;51.166;6.992;2023-03-21T06:25:07;9.90;99.90
19483;DHT22;9882;51.166;6.992;2023-03-21T06:27:36;9.80;99.90
19483;DHT22;9882;51.166;6.992;2023-03-21T06:30:07;9.90;99.90
19483;DHT22;9882;51.166;6.992;2023-03-21T06:32:54;9.80;99.90
19483;DHT22;9882;51.166;6.992;2023-03-21T06:35:24;9.80;99.90
19483;DHT22;9882;51.166;6.992;2023-03-21T06:37:52;9.70;99.90
19483;DHT22;9882;51.166;6.992;2023-03-21T06:40:21;9.80;99.90
19483;DHT22;9882;51.166;6.992;2023-03-21T06:42:50;9.80;99.90
19483;DHT22;9882;51.166;6.992;2023-03-21T06:45:18;9.90;99.90
19483;DHT22;9882;51.166;6.992;2023-03-21T06:47:47;9.90;99.90
19483;DHT22;9882;51.166;6.992;2023-03-21T06:50:28;9.90;99.90
19483;DHT22;9882;51.166;6.992;2023-03-21T06:52:56;9.80;99.90
19483;DHT22;9882;51.166;6.992;2023-03-21T06:55:27;9.90;99.90
19483;DHT22;9882;51.166;6.992;2023-03-21T06:57:58;9.90;99.90
19483;DHT22;9882;51.166;6.992;2023-03-21T07:00:27;9.90;99.90
19483;DHT22;9882;51.166;6.992;2023-03-21T07:02:57;9.90;99.90
19483;DHT22;9882;51.166;6.992;2023-03-21T07:05:27;9.90;99.90
19483;DHT22;9882;51.166;6.992;2023-03-21T07:07:56;9.90;99.90
19483;DHT22;9882;51.166;6.992;2023-03-21T07:10:26;9.80;99.90
19483;DHT22;9882;51.166;6.992;2023-03-21T07:13:04;9.90;99.90
19483;DHT22;9882;51.166;6.992;2023-03-21T07:15:45;9.90;99.90
19483;DHT22;9882;51.166;6.992;2023-03-21T07:18:14;9.90;99.90
19483;DHT22;9882;51.166;6.992;2023-03-21T07:20:47;10.00;99.90
19483;DHT22;9882;51.166;6.992;2023-03-21T07:23:17;10.00;99.90
19483;DHT22;9882;51.166;6.992;2023-03-21T07:25:46;9.90;99.90
19483;DHT22;9882;51.166;6.992;2023-03-21T07:28:15;9.90;99.90
19483;DHT22;9882;51.166;6.992;2023-03-21T07:30:44;10.00;99.90
19483;DHT22;9882;51.166;6.992;2023-03-21T07:33:13;9.90;99.90
19483;DHT22;9882;51.166;6.992;2023-03-21T07:35:42;9.80;99.90
19483;DHT22;9882;51.166;6.992;2023-03-21T07:38:12;9.90;99.90
19483;DHT22;9882;51.166;6.992;2023-03-21T07:40:43;9.80;99.90
19483;DHT22;9882;51.166;6.992;2023-03-21T07:43:12;9.80;99.90
19483;DHT22;9882;51.166;6.992;2023-03-21T07:45:43;9.80;99.90
19483;DHT22;9882;51.166;6.992;2023-03-21T07:48:13;10.00;99.90
19483;DHT22;9882;51.166;6.992;2023-03-21T07:50:43;9.80;99.90
19483;DHT22;9882;51.166;6.992;2023-03-21T07:53:14;9.80;99.90
19483;DHT22;9882;51.166;6.992;2023-03-21T07:55:42;9.80;99.90
19483;DHT22;9882;51.166;6.992;2023-03-21T07:58:10;9.80;99.90
19483;DHT22;9882;51.166;6.992;2023-03-21T08:00:39;9.90;99.90
19483;DHT22;9882;51.166;6.992;2023-03-21T08:03:08;10.00;99.90
19483;DHT22;9882;51.166;6.992;2023-03-21T08:05:38;10.00;99.90
19483;DHT22;9882;51.166;6.992;2023-03-21T08:08:07;10.00;99.90
19483;DHT22;9882;51.166;6.992;2023-03-21T08:10:37;9.90;99.90
19483;DHT22;9882;51.166;6.992;2023-03-21T08:13:06;10.00;99.90
19483;DHT22;9882;51.166;6.992;2023-03-21T08:15:34;10.10;99.90
19483;DHT22;9882;51.166;6.992;2023-03-21T08:18:03;10.00;99.90
19483;DHT22;9882;51.166;6.992;2023-03-21T08:20:32;10.00;99.90
19483;DHT22;9882;51.166;6.992;2023-03-21T08:23:01;10.00;99.90
19483;DHT22;9882;51.166;6.992;2023-03-21T08:25:29;10.00;99.90
19483;DHT22;9882;51.166;6.992;2023-03-21T08:27:59;10.00;99.90
19483;DHT22;9882;51.166;6.992;2023-03-21T08:30:28;10.00;99.90
19483;DHT22;9882;51.166;6.992;2023-03-21T08:32:57;10.00;99.90
19483;DHT22;9882;51.166;6.992;2023-03-21T08:35:28;10.10;99.90
19483;DHT22;9882;51.166;6.992;2023-03-21T08:37:56;10.10;99.90
19483;DHT22;9882;51.166;6.992;2023-03-21T08:40:25;10.00;99.90
19483;DHT22;9882;51.166;6.992;2023-03-21T08:42:53;10.10;99.90
19483;DHT22;9882;51.166;6.992;2023-03-21T08:45:23;10.00;99.90
19483;DHT22;9882;51.166;6.992;2023-03-21T08:47:53;10.00;99.90
19483;DHT22;9882;51.166;6.992;2023-03-21T08:50:24;10.00;99.90
19483;DHT22;9882;51.166;6.992;2023-03-21T08:52:55;10.00;99.90
19483;DHT22;9882;51.166;6.992;2023-03-21T08:55:24;10.00;99.90
19483;DHT22;9882;51.166;6.992;2023-03-21T08:57:52;10.00;99.90
19483;DHT22;9882;51.166;6.992;2023-03-21T09:00:22;10.00;99.90
19483;DHT22;9882;51.166;6.992;2023-03-21T09:02:51;10.00;99.90
19483;DHT22;9882;51.166;6.992;2023-03-21T09:05:21;10.00;99.90
19483;DHT22;9882;51.166;6.992;2023-03-21T09:07:51;9.90;99.90
19483;DHT22;9882;51.166;6.992;2023-03-21T09:10:21;10.00;99.90
19483;DHT22;9882;51.166;6.992;2023-03-21T09:12:52;10.00;99.90
19483;DHT22;9882;51.166;6.992;2023-03-21T09:15:24;10.00;99.90
19483;DHT22;9882;51.166;6.992;2023-03-21T09:17:55;10.00;99.90
19483;DHT22;9882;51.166;6.992;2023-03-21T09:20:25;10.10;99.90
19483;DHT22;9882;51.166;6.992;2023-03-21T09:22:57;10.00;99.90
19483;DHT22;9882;51.166;6.992;2023-03-21T09:25:27;10.10;99.90
19483;DHT22;9882;51.166;6.992;2023-03-21T09:27:57;10.10;99.90
19483;DHT22;9882;51.166;6.992;2023-03-21T09:30:27;10.10;99.90
19483;DHT22;9882;51.166;6.992;2023-03-21T09:32:58;10.20;99.90
19483;DHT22;9882;51.166;6.992;2023-03-21T09:35:27;10.20;99.90
19483;DHT22;9882;51.166;6.992;2023-03-21T09:37:56;10.20;99.90
19483;DHT22;9882;51.166;6.992;2023-03-21T09:40:38;10.20;99.90
19483;DHT22;9882;51.166;6.992;2023-03-21T09:43:17;10.30;99.90
19483;DHT22;9882;51.166;6.992;2023-03-21T09:45:54;10.30;99.90
19483;DHT22;9882;51.166;6.992;2023-03-21T09:48:33;10.30;99.90
19483;DHT22;9882;51.166;6.992;2023-03-21T09:51:09;10.30;99.90
19483;DHT22;9882;51.166;6.992;2023-03-21T09:53:44;10.40;99.90
19483;DHT22;9882;51.166;6.992;2023-03-21T09:56:15;10.30;99.90
19483;DHT22;9882;51.166;6.992;2023-03-21T09:58:45;10.30;99.90
19483;DHT22;9882;51.166;6.992;2023-03-21T10:01:24;10.30;99.90
19483;DHT22;9882;51.166;6.992;2023-03-21T10:03:55;10.30;99.90
19483;DHT22;9882;51.166;6.992;2023-03-21T10:06:27;10.30;99.90
19483;DHT22;9882;51.166;6.992;2023-03-21T10:08:59;10.40;99.90
19483;DHT22;9882;51.166;6.992;2023-03-21T10:11:31;10.40;99.90
19483;DHT22;9882;51.166;6.992;2023-03-21T10:14:06;10.40;99.90
19483;DHT22;9882;51.166;6.992;2023-03-21T10:16:42;10.50;99.90
19483;DHT22;9882;51.166;6.992;2023-03-21T10:19:13;10.50;99.90
19483;DHT22;9882;51.166;6.992;2023-03-21T10:21:44;10.50;99.90
19483;DHT22;9882;51.166;6.992;2023-03-21T10:24:32;10.60;99.90
19483;DHT22;9882;51.166;6.992;2023-03-21T10:27:02;10.60;99.90
19483;DHT22;9882;51.166;6.992;2023-03-21T10:29:34;10.70;99.90
19483;DHT22;9882;51.166;6.992;2023-03-21T10:32:09;10.70;99.90
19483;DHT22;9882;51.166;6.992;2023-03-21T10:34:41;10.80;99.90
19483;DHT22;9882;51.166;6.992;2023-03-21T10:37:11;10.90;99.90
19483;DHT22;9882;51.166;6.992;2023-03-21T10:39:40;10.70;99.90
19483;DHT22;9882;51.166;6.992;2023-03-21T10:42:17;10.70;99.90
19483;DHT22;9882;51.166;6.992;2023-03-21T10:44:46;10.70;99.90
19483;DHT22;9882;51.166;6.992;2023-03-21T10:47:21;10.80;99.90
19483;DHT22;9882;51.166;6.992;2023-03-21T10:49:50;10.80;99.90
19483;DHT22;9882;51.166;6.992;2023-03-21T10:52:40;10.90;99.90
19483;DHT22;9882;51.166;6.992;2023-03-21T10:55:18;11.00;99.90
19483;DHT22;9882;51.166;6.992;2023-03-21T10:57:50;10.90;99.90
19483;DHT22;9882;51.166;6.992;2023-03-21T11:00:21;11.00;99.90
19483;DHT22;9882;51.166;6.992;2023-03-21T11:02:53;10.90;99.90
19483;DHT22;9882;51.166;6.992;2023-03-21T11:05:25;11.00;99.90
19483;DHT22;9882;51.166;6.992;2023-03-21T11:07:59;11.00;99.90
19483;DHT22;9882;51.166;6.992;2023-03-21T11:10:31;11.00;99.90
19483;DHT22;9882;51.166;6.992;2023-03-21T11:13:05;11.00;99.90
19483;DHT22;9882;51.166;6.992;2023-03-21T11:15:51;11.00;99.90
19483;DHT22;9882;51.166;6.992;2023-03-21T11:18:23;11.00;99.90
19483;DHT22;9882;51.166;6.992;2023-03-21T11:20:53;11.00;99.90
19483;DHT22;9882;51.166;6.992;2023-03-21T11:23:26;11.00;99.90
19483;DHT22;9882;51.166;6.992;2023-03-21T11:25:56;11.00;99.90
19483;DHT22;9882;51.166;6.992;2023-03-21T11:28:32;11.00;99.90
19483;DHT22;9882;51.166;6.992;2023-03-21T11:31:02;11.00;99.90
19483;DHT22;9882;51.166;6.992;2023-03-21T11:33:35;11.00;99.90
19483;DHT22;9882;51.166;6.992;2023-03-21T11:36:23;11.00;99.90
19483;DHT22;9882;51.166;6.992;2023-03-21T11:38:56;11.10;99.90
19483;DHT22;9882;51.166;6.992;2023-03-21T11:41:29;11.10;99.90
19483;DHT22;9882;51.166;6.992;2023-03-21T11:43:59;11.20;99.90
19483;DHT22;9882;51.166;6.992;2023-03-21T11:46:29;11.30;99.90
19483;DHT22;9882;51.166;6.992;2023-03-21T11:48:59;11.20;99.90
19483;DHT22;9882;51.166;6.992;2023-03-21T11:51:32;11.20;99.90
19483;DHT22;9882;51.166;6.992;2023-03-21T11:54:11;11.20;99.90
19483;DHT22;9882;51.166;6.992;2023-03-21T11:56:44;11.20;99.90
19483;DHT22;9882;51.166;6.992;2023-03-21T11:59:30;11.20;99.90
19483;DHT22;9882;51.166;6.992;2023-03-21T12:02:26;11.30;99.90
19483;DHT22;9882;51.166;6.992;2023-03-21T12:05:10;11.30;99.90
19483;DHT22;9882;51.166;6.992;2023-03-21T12:07:51;11.30;99.90
19483;DHT22;9882;51.166;6.992;2023-03-21T12:10:30;11.30;99.90
19483;DHT22;9882;51.166;6.992;2023-03-21T12:13:09;11.30;99.90
19483;DHT22;9882;51.166;6.992;2023-03-21T12:15:47;11.30;99.90
19483;DHT22;9882;51.166;6.992;2023-03-21T12:18:37;11.30;99.90
19483;DHT22;9882;51.166;6.992;2023-03-21T12:21:14;11.20;99.90
19483;DHT22;9882;51.166;6.992;2023-03-21T12:23:55;11.20;99.90
19483;DHT22;9882;51.166;6.992;2023-03-21T12:26:25;11.20;99.90
19483;DHT22;9882;51.166;6.992;2023-03-21T12:29:14;11.10;99.90
19483;DHT22;9882;51.166;6.992;2023-03-21T12:31:54;11.10;99.90
19483;DHT22;9882;51.166;6.992;2023-03-21T12:34:35;11.00;99.90
19483;DHT22;9882;51.166;6.992;2023-03-21T12:37:15;11.10;99.90
19483;DHT22;9882;51.166;6.992;2023-03-21T12:39:47;11.00;99.90
19483;DHT22;9882;51.166;6.992;2023-03-21T12:42:55;11.10;99.90
19483;DHT22;9882;51.166;6.992;2023-03-21T12:45:31;11.10;99.90
19483;DHT22;9882;51.166;6.992;2023-03-21T12:48:16;11.10;99.90
19483;DHT22;9882;51.166;6.992;2023-03-21T12:50:50;11.00;99.90
19483;DHT22;9882;51.166;6.992;2023-03-21T12:53:30;10.90;99.90
19483;DHT22;9882;51.166;6.992;2023-03-21T12:56:06;11.10;99.90
19483;DHT22;9882;51.166;6.992;2023-03-21T12:58:43;11.20;99.90
19483;DHT22;9882;51.166;6.992;2023-03-21T13:01:14;11.20;99.90
19483;DHT22;9882;51.166;6.992;2023-03-21T13:03:46;11.30;99.90
19483;DHT22;9882;51.166;6.992;2023-03-21T13:06:19;11.30;99.90
19483;DHT22;9882;51.166;6.992;2023-03-21T13:08:55;11.30;99.90
19483;DHT22;9882;51.166;6.992;2023-03-21T13:11:28;11.20;99.90
19483;DHT22;9882;51.166;6.992;2023-03-21T13:14:00;11.30;99.90
19483;DHT22;9882;51.166;6.992;2023-03-21T13:16:32;11.10;99.90
19483;DHT22;9882;51.166;6.992;2023-03-21T13:19:12;11.30;99.90
19483;DHT22;9882;51.166;6.992;2023-03-21T13:21:50;11.30;99.90
19483;DHT22;9882;51.166;6.992;2023-03-21T13:24:26;11.30;99.90
19483;DHT22;9882;51.166;6.992;2023-03-21T13:27:00;11.30;99.90
19483;DHT22;9882;51.166;6.992;2023-03-21T13:29:32;11.30;99.90
19483;DHT22;9882;51.166;6.992;2023-03-21T13:32:09;11.40;99.90
19483;DHT22;9882;51.166;6.992;2023-03-21T13:34:42;11.40;99.90
19483;DHT22;9882;51.166;6.992;2023-03-21T13:37:14;11.40;99.90
19483;DHT22;9882;51.166;6.992;2023-03-21T13:39:45;11.40;99.90
19483;DHT22;9882;51.166;6.992;2023-03-21T13:42:20;11.40;99.90
19483;DHT22;9882;51.166;6.992;2023-03-21T13:44:54;11.40;99.90
19483;DHT22;9882;51.166;6.992;2023-03-21T13:47:37;11.50;99.90
19483;DHT22;9882;51.166;6.992;2023-03-21T13:50:30;11.50;99.90
19483;DHT22;9882;51.166;6.992;2023-03-21T13:53:23;11.60;99.90
19483;DHT22;9882;51.166;6.992;2023-03-21T13:56:20;11.80;99.90
19483;DHT22;9882;51.166;6.992;2023-03-21T13:58:57;11.90;99.90
19483;DHT22;9882;51.166;6.992;2023-03-21T14:01:31;12.00;99.90
19483;DHT22;9882;51.166;6.992;2023-03-21T14:04:11;12.10;99.90
19483;DHT22;9882;51.166;6.992;2023-03-21T14:06:45;12.10;99.90
19483;DHT22;9882;51.166;6.992;2023-03-21T14:09:20;12.00;99.90
19483;DHT22;9882;51.166;6.992;2023-03-21T14:11:52;12.10;99.90
19483;DHT22;9882;51.166;6.992;2023-03-21T14:14:29;12.10;99.90
19483;DHT22;9882;51.166;6.992;2023-03-21T14:17:00;12.00;99.90
19483;DHT22;9882;51.166;6.992;2023-03-21T14:19:29;12.10;99.90
19483;DHT22;9882;51.166;6.992;2023-03-21T14:21:58;12.10;99.90
19483;DHT22;9882;51.166;6.992;2023-03-21T14:24:27;12.20;99.90
19483;DHT22;9882;51.166;6.992;2023-03-21T14:26:56;12.20;99.90
19483;DHT22;9882;51.166;6.992;2023-03-21T14:29:30;12.20;99.90
19483;DHT22;9882;51.166;6.992;2023-03-21T14:32:01;12.20;99.90
19483;DHT22;9882;51.166;6.992;2023-03-21T14:34:33;12.20;99.90
19483;DHT22;9882;51.166;6.992;2023-03-21T14:37:06;12.20;99.90
19483;DHT22;9882;51.166;6.992;2023-03-21T14:39:34;12.20;99.90
19483;DHT22;9882;51.166;6.992;2023-03-21T14:42:06;12.20;99.90
19483;DHT22;9882;51.166;6.992;2023-03-21T14:44:36;12.20;99.90
19483;DHT22;9882;51.166;6.992;2023-03-21T14:47:23;12.20;99.90
19483;DHT22;9882;51.166;6.992;2023-03-21T14:49:52;12.30;99.90
19483;DHT22;9882;51.166;6.992;2023-03-21T14:52:24;12.30;99.90
19483;DHT22;9882;51.166;6.992;2023-03-21T14:54:54;12.30;99.90
19483;DHT22;9882;51.166;6.992;2023-03-21T14:57:25;12.30;99.90
19483;DHT22;9882;51.166;6.992;2023-03-21T14:59:58;12.40;99.90
19483;DHT22;9882;51.166;6.992;2023-03-21T15:02:31;12.50;99.90
19483;DHT22;9882;51.166;6.992;2023-03-21T15:05:07;12.60;99.90
19483;DHT22;9882;51.166;6.992;2023-03-21T15:07:37;12.70;99.90
19483;DHT22;9882;51.166;6.992;2023-03-21T15:10:11;12.60;99.90
19483;DHT22;9882;51.166;6.992;2023-03-21T15:12:50;12.70;99.90
19483;DHT22;9882;51.166;6.992;2023-03-21T15:15:20;13.10;99.90
19483;DHT22;9882;51.166;6.992;2023-03-21T15:17:51;13.40;99.90
19483;DHT22;9882;51.166;6.992;2023-03-21T15:20:25;13.90;99.90
19483;DHT22;9882;51.166;6.992;2023-03-21T15:22:59;13.60;99.90
19483;DHT22;9882;51.166;6.992;2023-03-21T15:25:32;14.00;99.90
19483;DHT22;9882;51.166;6.992;2023-03-21T15:28:04;13.90;99.90
19483;DHT22;9882;51.166;6.992;2023-03-21T15:30:33;14.20;99.90
19483;DHT22;9882;51.166;6.992;2023-03-21T15:33:07;14.80;99.90
19483;DHT22;9882;51.166;6.992;2023-03-21T15:35:38;15.10;99.90
19483;DHT22;9882;51.166;6.992;2023-03-21T15:38:21;14.90;99.90
19483;DHT22;9882;51.166;6.992;2023-03-21T15:40:49;14.60;99.90
19483;DHT22;9882;51.166;6.992;2023-03-21T15:43:19;14.30;99.90
19483;DHT22;9882;51.166;6.992;2023-03-21T15:45:50;14.60;99.90
19483;DHT22;9882;51.166;6.992;2023-03-21T15:48:24;15.10;99.90
19483;DHT22;9882;51.166;6.992;2023-03-21T15:50:57;16.00;99.90
19483;DHT22;9882;51.166;6.992;2023-03-21T15:53:30;16.60;99.90
19483;DHT22;9882;51.166;6.992;2023-03-21T15:56:01;16.80;99.90
19483;DHT22;9882;51.166;6.992;2023-03-21T15:58:35;16.90;99.90
19483;DHT22;9882;51.166;6.992;2023-03-21T16:01:11;16.60;99.90
19483;DHT22;9882;51.166;6.992;2023-03-21T16:03:44;16.70;99.90
19483;DHT22;9882;51.166;6.992;2023-03-21T16:06:18;16.70;99.90
19483;DHT22;9882;51.166;6.992;2023-03-21T16:08:49;16.00;99.90
19483;DHT22;9882;51.166;6.992;2023-03-21T16:11:22;15.80;99.90
19483;DHT22;9882;51.166;6.992;2023-03-21T16:13:54;15.00;99.90
19483;DHT22;9882;51.166;6.992;2023-03-21T16:16:24;14.60;99.90
19483;DHT22;9882;51.166;6.992;2023-03-21T16:18:56;14.20;99.90
19483;DHT22;9882;51.166;6.992;2023-03-21T16:21:26;13.90;99.90
19483;DHT22;9882;51.166;6.992;2023-03-21T16:23:56;13.80;99.90
19483;DHT22;9882;51.166;6.992;2023-03-21T16:26:27;13.70;99.90
19483;DHT22;9882;51.166;6.992;2023-03-21T16:28:58;13.60;99.90
19483;DHT22;9882;51.166;6.992;2023-03-21T16:31:29;13.50;99.90
19483;DHT22;9882;51.166;6.992;2023-03-21T16:33:58;13.50;99.90
19483;DHT22;9882;51.166;6.992;2023-03-21T16:36:30;13.70;99.90